sensor_id;sensor_type;location;lat;lon;timestamp;P1;durP1;ratioP1;P2;durP2;ratioP2
32236;SDS011;18726;44.732;10.550;2024-02-23T00:01:45;85.75;;;61.20;;
32236;SDS011;18726;44.732;10.550;2024-02-23T00:04:50;91.95;;;59.05;;
32236;SDS011;18726;44.732;10.550;2024-02-23T00:07:54;89.07;;;60.75;;
32236;SDS011;18726;44.732;10.550;2024-02-23T00:10:58;81.18;;;56.95;;
32236;SDS011;18726;44.732;10.550;2024-02-23T00:14:02;76.50;;;54.38;;
32236;SDS011;18726;44.732;10.550;2024-02-23T00:17:06;75.38;;;53.75;;
32236;SDS011;18726;44.732;10.550;2024-02-23T00:20:10;73.25;;;53.63;;
32236;SDS011;18726;44.732;10.550;2024-02-23T00:23:14;83.18;;;59.65;;
32236;SDS011;18726;44.732;10.550;2024-02-23T00:26:18;86.30;;;62.13;;
32236;SDS011;18726;44.732;10.550;2024-02-23T00:29:22;77.22;;;52.60;;
32236;SDS011;18726;44.732;10.550;2024-02-23T00:32:26;82.35;;;57.65;;
32236;SDS011;18726;44.732;10.550;2024-02-23T00:35:30;71.50;;;54.05;;
32236;SDS011;18726;44.732;10.550;2024-02-23T00:38:34;78.95;;;57.80;;
32236;SDS011;18726;44.732;10.550;2024-02-23T00:41:38;82.80;;;57.70;;
32236;SDS011;18726;44.732;10.550;2024-02-23T00:44:41;82.53;;;56.45;;
32236;SDS011;18726;44.732;10.550;2024-02-23T00:47:45;63.95;;;45.92;;
32236;SDS011;18726;44.732;10.550;2024-02-23T00:50:51;69.55;;;48.38;;
32236;SDS011;18726;44.732;10.550;2024-02-23T00:53:55;82.72;;;54.10;;
32236;SDS011;18726;44.732;10.550;2024-02-23T00:56:58;57.78;;;42.50;;
32236;SDS011;18726;44.732;10.550;2024-02-23T01:00:02;73.32;;;55.22;;
32236;SDS011;18726;44.732;10.550;2024-02-23T01:03:08;76.78;;;53.15;;
32236;SDS011;18726;44.732;10.550;2024-02-23T01:06:12;66.18;;;48.72;;
32236;SDS011;18726;44.732;10.550;2024-02-23T01:09:15;75.07;;;50.40;;
32236;SDS011;18726;44.732;10.550;2024-02-23T01:12:23;72.32;;;52.83;;
32236;SDS011;18726;44.732;10.550;2024-02-23T01:15:26;73.90;;;52.25;;
32236;SDS011;18726;44.732;10.550;2024-02-23T01:18:30;56.17;;;41.28;;
32236;SDS011;18726;44.732;10.550;2024-02-23T01:21:33;64.13;;;45.42;;
32236;SDS011;18726;44.732;10.550;2024-02-23T01:24:36;60.35;;;41.90;;
32236;SDS011;18726;44.732;10.550;2024-02-23T01:27:40;48.55;;;35.92;;
32236;SDS011;18726;44.732;10.550;2024-02-23T01:30:43;59.05;;;43.72;;
32236;SDS011;18726;44.732;10.550;2024-02-23T01:33:47;53.42;;;41.70;;
32236;SDS011;18726;44.732;10.550;2024-02-23T01:36:52;36.08;;;28.00;;
32236;SDS011;18726;44.732;10.550;2024-02-23T01:39:56;28.60;;;21.35;;
32236;SDS011;18726;44.732;10.550;2024-02-23T01:43:02;32.88;;;24.92;;
32236;SDS011;18726;44.732;10.550;2024-02-23T01:46:08;37.72;;;27.98;;
32236;SDS011;18726;44.732;10.550;2024-02-23T01:49:12;41.20;;;29.17;;
32236;SDS011;18726;44.732;10.550;2024-02-23T01:52:17;30.00;;;25.40;;
32236;SDS011;18726;44.732;10.550;2024-02-23T01:55:21;25.63;;;18.85;;
32236;SDS011;18726;44.732;10.550;2024-02-23T01:58:27;21.63;;;17.23;;
32236;SDS011;18726;44.732;10.550;2024-02-23T02:01:32;34.97;;;27.02;;
32236;SDS011;18726;44.732;10.550;2024-02-23T02:04:36;31.67;;;27.58;;
32236;SDS011;18726;44.732;10.550;2024-02-23T02:07:39;29.52;;;23.98;;
32236;SDS011;18726;44.732;10.550;2024-02-23T02:10:45;34.53;;;26.35;;
32236;SDS011;18726;44.732;10.550;2024-02-23T02:13:50;39.60;;;28.38;;
32236;SDS011;18726;44.732;10.550;2024-02-23T02:16:53;32.53;;;27.38;;
32236;SDS011;18726;44.732;10.550;2024-02-23T02:19:58;26.92;;;21.98;;
32236;SDS011;18726;44.732;10.550;2024-02-23T02:23:05;31.27;;;25.80;;
32236;SDS011;18726;44.732;10.550;2024-02-23T02:26:10;28.67;;;20.45;;
32236;SDS011;18726;44.732;10.550;2024-02-23T02:29:14;39.17;;;26.25;;
32236;SDS011;18726;44.732;10.550;2024-02-23T02:32:18;32.58;;;25.20;;
32236;SDS011;18726;44.732;10.550;2024-02-23T02:35:21;45.08;;;24.40;;
32236;SDS011;18726;44.732;10.550;2024-02-23T02:38:25;23.98;;;18.05;;
32236;SDS011;18726;44.732;10.550;2024-02-23T02:41:28;24.02;;;17.77;;
32236;SDS011;18726;44.732;10.550;2024-02-23T02:44:33;25.38;;;19.17;;
32236;SDS011;18726;44.732;10.550;2024-02-23T02:47:36;26.02;;;20.35;;
32236;SDS011;18726;44.732;10.550;2024-02-23T02:50:40;19.85;;;17.38;;
32236;SDS011;18726;44.732;10.550;2024-02-23T02:53:44;28.05;;;22.10;;
32236;SDS011;18726;44.732;10.550;2024-02-23T02:56:47;25.67;;;21.52;;
32236;SDS011;18726;44.732;10.550;2024-02-23T02:59:53;25.25;;;21.15;;
32236;SDS011;18726;44.732;10.550;2024-02-23T03:02:57;29.90;;;21.05;;
32236;SDS011;18726;44.732;10.550;2024-02-23T03:06:00;21.15;;;18.15;;
32236;SDS011;18726;44.732;10.550;2024-02-23T03:09:04;20.30;;;18.10;;
32236;SDS011;18726;44.732;10.550;2024-02-23T03:12:08;21.50;;;17.98;;
32236;SDS011;18726;44.732;10.550;2024-02-23T03:15:12;26.33;;;21.38;;
32236;SDS011;18726;44.732;10.550;2024-02-23T03:18:16;22.50;;;19.55;;
32236;SDS011;18726;44.732;10.550;2024-02-23T03:21:19;24.80;;;20.88;;
32236;SDS011;18726;44.732;10.550;2024-02-23T03:24:23;31.92;;;22.90;;
32236;SDS011;18726;44.732;10.550;2024-02-23T03:27:28;20.55;;;16.33;;
32236;SDS011;18726;44.732;10.550;2024-02-23T03:30:32;18.05;;;15.23;;
32236;SDS011;18726;44.732;10.550;2024-02-23T03:33:36;20.15;;;16.50;;
32236;SDS011;18726;44.732;10.550;2024-02-23T03:36:39;18.88;;;15.18;;
32236;SDS011;18726;44.732;10.550;2024-02-23T03:39:43;12.98;;;11.68;;
32236;SDS011;18726;44.732;10.550;2024-02-23T03:42:46;14.02;;;9.23;;
32236;SDS011;18726;44.732;10.550;2024-02-23T03:45:49;9.30;;;6.28;;
32236;SDS011;18726;44.732;10.550;2024-02-23T03:48:53;13.02;;;7.57;;
32236;SDS011;18726;44.732;10.550;2024-02-23T03:51:56;6.45;;;5.07;;
32236;SDS011;18726;44.732;10.550;2024-02-23T03:55:00;7.40;;;5.60;;
32236;SDS011;18726;44.732;10.550;2024-02-23T03:58:04;10.98;;;5.63;;
32236;SDS011;18726;44.732;10.550;2024-02-23T04:01:07;6.22;;;3.80;;
32236;SDS011;18726;44.732;10.550;2024-02-23T04:04:11;5.53;;;5.03;;
32236;SDS011;18726;44.732;10.550;2024-02-23T04:07:15;15.55;;;6.85;;
32236;SDS011;18726;44.732;10.550;2024-02-23T04:10:19;7.97;;;5.60;;
32236;SDS011;18726;44.732;10.550;2024-02-23T04:13:22;7.82;;;4.97;;
32236;SDS011;18726;44.732;10.550;2024-02-23T04:16:26;7.63;;;5.38;;
32236;SDS011;18726;44.732;10.550;2024-02-23T04:19:30;8.25;;;5.32;;
32236;SDS011;18726;44.732;10.550;2024-02-23T04:22:34;9.77;;;7.65;;
32236;SDS011;18726;44.732;10.550;2024-02-23T04:25:37;13.25;;;9.63;;
32236;SDS011;18726;44.732;10.550;2024-02-23T04:28:41;13.02;;;8.25;;
32236;SDS011;18726;44.732;10.550;2024-02-23T04:31:45;9.68;;;7.72;;
32236;SDS011;18726;44.732;10.550;2024-02-23T04:34:48;5.15;;;4.65;;
32236;SDS011;18726;44.732;10.550;2024-02-23T04:37:52;9.20;;;5.38;;
32236;SDS011;18726;44.732;10.550;2024-02-23T04:40:57;12.57;;;5.55;;
32236;SDS011;18726;44.732;10.550;2024-02-23T04:44:01;5.43;;;4.85;;
32236;SDS011;18726;44.732;10.550;2024-02-23T04:47:05;9.60;;;7.07;;
32236;SDS011;18726;44.732;10.550;2024-02-23T04:50:09;11.70;;;9.40;;
32236;SDS011;18726;44.732;10.550;2024-02-23T04:53:13;9.02;;;7.05;;
32236;SDS011;18726;44.732;10.550;2024-02-23T04:56:17;11.10;;;6.03;;
32236;SDS011;18726;44.732;10.550;2024-02-23T04:59:20;8.25;;;5.88;;
32236;SDS011;18726;44.732;10.550;2024-02-23T05:02:24;10.15;;;5.88;;
32236;SDS011;18726;44.732;10.550;2024-02-23T05:05:32;7.00;;;5.55;;
32236;SDS011;18726;44.732;10.550;2024-02-23T05:08:36;11.45;;;6.15;;
32236;SDS011;18726;44.732;10.550;2024-02-23T05:11:39;10.30;;;5.80;;
32236;SDS011;18726;44.732;10.550;2024-02-23T05:14:43;10.23;;;5.53;;
32236;SDS011;18726;44.732;10.550;2024-02-23T05:17:47;7.80;;;5.30;;
32236;SDS011;18726;44.732;10.550;2024-02-23T05:20:50;12.30;;;5.57;;
32236;SDS011;18726;44.732;10.550;2024-02-23T05:23:54;8.82;;;5.35;;
32236;SDS011;18726;44.732;10.550;2024-02-23T05:26:58;6.07;;;4.70;;
32236;SDS011;18726;44.732;10.550;2024-02-23T05:30:05;9.88;;;5.38;;
32236;SDS011;18726;44.732;10.550;2024-02-23T05:33:09;9.13;;;5.00;;
32236;SDS011;18726;44.732;10.550;2024-02-23T05:36:13;8.38;;;5.55;;
32236;SDS011;18726;44.732;10.550;2024-02-23T05:39:19;8.02;;;5.50;;
32236;SDS011;18726;44.732;10.550;2024-02-23T05:42:23;5.60;;;4.75;;
32236;SDS011;18726;44.732;10.550;2024-02-23T05:45:26;7.00;;;5.00;;
32236;SDS011;18726;44.732;10.550;2024-02-23T05:48:30;9.52;;;5.47;;
32236;SDS011;18726;44.732;10.550;2024-02-23T05:51:33;7.93;;;4.43;;
32236;SDS011;18726;44.732;10.550;2024-02-23T05:54:38;11.40;;;5.05;;
32236;SDS011;18726;44.732;10.550;2024-02-23T05:57:42;8.35;;;4.50;;
32236;SDS011;18726;44.732;10.550;2024-02-23T06:00:46;8.73;;;4.55;;
32236;SDS011;18726;44.732;10.550;2024-02-23T06:04:18;7.90;;;5.50;;
32236;SDS011;18726;44.732;10.550;2024-02-23T06:07:21;8.77;;;4.47;;
32236;SDS011;18726;44.732;10.550;2024-02-23T06:10:32;5.78;;;4.72;;
32236;SDS011;18726;44.732;10.550;2024-02-23T06:13:35;7.22;;;4.53;;
32236;SDS011;18726;44.732;10.550;2024-02-23T06:16:38;7.45;;;6.53;;
32236;SDS011;18726;44.732;10.550;2024-02-23T06:19:43;13.07;;;7.22;;
32236;SDS011;18726;44.732;10.550;2024-02-23T06:22:47;12.43;;;7.45;;
32236;SDS011;18726;44.732;10.550;2024-02-23T06:25:50;22.40;;;14.00;;
32236;SDS011;18726;44.732;10.550;2024-02-23T06:28:54;9.35;;;5.38;;
32236;SDS011;18726;44.732;10.550;2024-02-23T06:31:58;12.55;;;8.57;;
32236;SDS011;18726;44.732;10.550;2024-02-23T06:35:04;42.03;;;32.22;;
32236;SDS011;18726;44.732;10.550;2024-02-23T06:38:09;20.35;;;15.73;;
32236;SDS011;18726;44.732;10.550;2024-02-23T06:41:12;8.95;;;6.35;;
32236;SDS011;18726;44.732;10.550;2024-02-23T06:44:16;16.50;;;7.55;;
32236;SDS011;18726;44.732;10.550;2024-02-23T06:47:20;14.25;;;10.38;;
32236;SDS011;18726;44.732;10.550;2024-02-23T06:50:24;14.25;;;10.70;;
32236;SDS011;18726;44.732;10.550;2024-02-23T06:53:27;14.20;;;12.70;;
32236;SDS011;18726;44.732;10.550;2024-02-23T06:56:31;16.52;;;14.00;;
32236;SDS011;18726;44.732;10.550;2024-02-23T06:59:35;19.60;;;15.15;;
32236;SDS011;18726;44.732;10.550;2024-02-23T07:02:39;21.77;;;17.05;;
32236;SDS011;18726;44.732;10.550;2024-02-23T07:05:43;18.75;;;16.85;;
32236;SDS011;18726;44.732;10.550;2024-02-23T07:08:48;18.38;;;16.38;;
32236;SDS011;18726;44.732;10.550;2024-02-23T07:11:51;26.13;;;19.92;;
32236;SDS011;18726;44.732;10.550;2024-02-23T07:14:55;23.05;;;18.67;;
32236;SDS011;18726;44.732;10.550;2024-02-23T07:17:59;22.00;;;19.02;;
32236;SDS011;18726;44.732;10.550;2024-02-23T07:21:03;22.55;;;19.20;;
32236;SDS011;18726;44.732;10.550;2024-02-23T07:24:07;22.63;;;20.08;;
32236;SDS011;18726;44.732;10.550;2024-02-23T07:27:11;31.10;;;22.60;;
32236;SDS011;18726;44.732;10.550;2024-02-23T07:30:15;29.70;;;22.10;;
32236;SDS011;18726;44.732;10.550;2024-02-23T07:33:19;24.65;;;20.83;;
32236;SDS011;18726;44.732;10.550;2024-02-23T07:36:23;27.27;;;22.02;;
32236;SDS011;18726;44.732;10.550;2024-02-23T07:39:27;29.27;;;23.35;;
32236;SDS011;18726;44.732;10.550;2024-02-23T07:42:32;25.77;;;22.52;;
32236;SDS011;18726;44.732;10.550;2024-02-23T07:45:39;27.13;;;24.13;;
32236;SDS011;18726;44.732;10.550;2024-02-23T07:48:43;35.38;;;24.42;;
32236;SDS011;18726;44.732;10.550;2024-02-23T07:51:46;32.90;;;24.35;;
32236;SDS011;18726;44.732;10.550;2024-02-23T07:54:51;28.42;;;25.30;;
32236;SDS011;18726;44.732;10.550;2024-02-23T07:57:55;25.80;;;22.65;;
32236;SDS011;18726;44.732;10.550;2024-02-23T08:01:04;29.92;;;26.63;;
32236;SDS011;18726;44.732;10.550;2024-02-23T08:04:08;29.45;;;26.25;;
32236;SDS011;18726;44.732;10.550;2024-02-23T08:07:12;30.92;;;27.63;;
32236;SDS011;18726;44.732;10.550;2024-02-23T08:10:16;33.55;;;26.83;;
32236;SDS011;18726;44.732;10.550;2024-02-23T08:13:19;28.77;;;25.77;;
32236;SDS011;18726;44.732;10.550;2024-02-23T08:16:24;29.27;;;26.23;;
32236;SDS011;18726;44.732;10.550;2024-02-23T08:19:27;27.38;;;23.92;;
32236;SDS011;18726;44.732;10.550;2024-02-23T08:22:31;29.20;;;26.05;;
32236;SDS011;18726;44.732;10.550;2024-02-23T08:25:35;29.00;;;23.42;;
32236;SDS011;18726;44.732;10.550;2024-02-23T08:28:40;26.67;;;22.63;;
32236;SDS011;18726;44.732;10.550;2024-02-23T08:31:43;26.92;;;23.05;;
32236;SDS011;18726;44.732;10.550;2024-02-23T08:34:47;28.67;;;22.50;;
32236;SDS011;18726;44.732;10.550;2024-02-23T08:37:50;24.33;;;20.90;;
32236;SDS011;18726;44.732;10.550;2024-02-23T08:40:54;29.25;;;22.30;;
32236;SDS011;18726;44.732;10.550;2024-02-23T08:43:58;27.00;;;21.92;;
32236;SDS011;18726;44.732;10.550;2024-02-23T08:47:02;25.30;;;21.63;;
32236;SDS011;18726;44.732;10.550;2024-02-23T08:50:06;24.60;;;21.20;;
32236;SDS011;18726;44.732;10.550;2024-02-23T08:53:10;27.10;;;23.60;;
32236;SDS011;18726;44.732;10.550;2024-02-23T08:56:14;24.50;;;21.88;;
32236;SDS011;18726;44.732;10.550;2024-02-23T08:59:19;26.83;;;20.75;;
32236;SDS011;18726;44.732;10.550;2024-02-23T09:02:23;24.70;;;22.05;;
32236;SDS011;18726;44.732;10.550;2024-02-23T09:05:27;26.92;;;21.48;;
32236;SDS011;18726;44.732;10.550;2024-02-23T09:08:31;26.15;;;19.67;;
32236;SDS011;18726;44.732;10.550;2024-02-23T09:11:34;27.95;;;22.20;;
32236;SDS011;18726;44.732;10.550;2024-02-23T09:14:37;24.17;;;21.65;;
32236;SDS011;18726;44.732;10.550;2024-02-23T09:17:41;21.20;;;19.02;;
32236;SDS011;18726;44.732;10.550;2024-02-23T09:20:45;20.58;;;18.48;;
32236;SDS011;18726;44.732;10.550;2024-02-23T09:23:49;23.25;;;17.15;;
32236;SDS011;18726;44.732;10.550;2024-02-23T09:26:53;18.63;;;15.80;;
32236;SDS011;18726;44.732;10.550;2024-02-23T09:29:57;16.23;;;14.63;;
32236;SDS011;18726;44.732;10.550;2024-02-23T09:33:02;15.27;;;13.68;;
32236;SDS011;18726;44.732;10.550;2024-02-23T09:36:06;15.38;;;13.05;;
32236;SDS011;18726;44.732;10.550;2024-02-23T09:39:10;12.07;;;10.88;;
32236;SDS011;18726;44.732;10.550;2024-02-23T09:42:13;11.70;;;10.60;;
32236;SDS011;18726;44.732;10.550;2024-02-23T09:45:18;9.52;;;8.23;;
32236;SDS011;18726;44.732;10.550;2024-02-23T09:48:22;10.90;;;9.80;;
32236;SDS011;18726;44.732;10.550;2024-02-23T09:51:27;9.43;;;8.20;;
32236;SDS011;18726;44.732;10.550;2024-02-23T09:54:31;9.52;;;8.60;;
32236;SDS011;18726;44.732;10.550;2024-02-23T09:57:35;10.73;;;7.10;;
32236;SDS011;18726;44.732;10.550;2024-02-23T10:00:40;9.10;;;7.22;;
32236;SDS011;18726;44.732;10.550;2024-02-23T10:03:44;13.25;;;8.23;;
32236;SDS011;18726;44.732;10.550;2024-02-23T10:06:50;7.30;;;6.60;;
32236;SDS011;18726;44.732;10.550;2024-02-23T10:09:53;7.72;;;6.90;;
32236;SDS011;18726;44.732;10.550;2024-02-23T10:13:01;7.38;;;6.78;;
32236;SDS011;18726;44.732;10.550;2024-02-23T10:16:07;6.40;;;5.78;;
32236;SDS011;18726;44.732;10.550;2024-02-23T10:19:12;6.47;;;5.97;;
32236;SDS011;18726;44.732;10.550;2024-02-23T10:22:16;6.95;;;6.25;;
32236;SDS011;18726;44.732;10.550;2024-02-23T10:25:20;29.10;;;22.08;;
32236;SDS011;18726;44.732;10.550;2024-02-23T10:28:24;12.07;;;10.98;;
32236;SDS011;18726;44.732;10.550;2024-02-23T10:31:27;14.55;;;13.15;;
32236;SDS011;18726;44.732;10.550;2024-02-23T10:34:32;8.32;;;7.65;;
32236;SDS011;18726;44.732;10.550;2024-02-23T10:37:43;11.73;;;10.15;;
32236;SDS011;18726;44.732;10.550;2024-02-23T10:40:50;22.17;;;19.63;;
32236;SDS011;18726;44.732;10.550;2024-02-23T10:43:59;15.57;;;14.07;;
32236;SDS011;18726;44.732;10.550;2024-02-23T10:47:04;10.10;;;9.02;;
32236;SDS011;18726;44.732;10.550;2024-02-23T10:50:08;9.00;;;8.13;;
32236;SDS011;18726;44.732;10.550;2024-02-23T10:53:12;9.00;;;7.82;;
32236;SDS011;18726;44.732;10.550;2024-02-23T10:56:19;8.80;;;7.90;;
32236;SDS011;18726;44.732;10.550;2024-02-23T10:59:22;9.15;;;7.95;;
32236;SDS011;18726;44.732;10.550;2024-02-23T11:02:27;10.63;;;7.68;;
32236;SDS011;18726;44.732;10.550;2024-02-23T11:05:34;9.77;;;8.77;;
32236;SDS011;18726;44.732;10.550;2024-02-23T11:08:38;10.13;;;7.38;;
32236;SDS011;18726;44.732;10.550;2024-02-23T11:11:50;6.93;;;6.32;;
32236;SDS011;18726;44.732;10.550;2024-02-23T11:14:57;7.22;;;6.53;;
32236;SDS011;18726;44.732;10.550;2024-02-23T11:18:01;7.30;;;6.57;;
32236;SDS011;18726;44.732;10.550;2024-02-23T11:21:05;7.70;;;6.90;;
32236;SDS011;18726;44.732;10.550;2024-02-23T11:24:15;9.23;;;8.25;;
32236;SDS011;18726;44.732;10.550;2024-02-23T11:27:19;21.98;;;15.52;;
32236;SDS011;18726;44.732;10.550;2024-02-23T11:30:23;17.52;;;14.68;;
32236;SDS011;18726;44.732;10.550;2024-02-23T11:33:29;12.20;;;11.10;;
32236;SDS011;18726;44.732;10.550;2024-02-23T11:36:38;18.90;;;16.85;;
32236;SDS011;18726;44.732;10.550;2024-02-23T11:39:42;14.63;;;12.90;;
32236;SDS011;18726;44.732;10.550;2024-02-23T11:42:48;11.13;;;9.98;;
32236;SDS011;18726;44.732;10.550;2024-02-23T11:45:52;17.02;;;13.82;;
32236;SDS011;18726;44.732;10.550;2024-02-23T11:48:56;13.68;;;12.45;;
32236;SDS011;18726;44.732;10.550;2024-02-23T11:52:00;14.15;;;10.52;;
32236;SDS011;18726;44.732;10.550;2024-02-23T11:55:05;11.80;;;10.60;;
32236;SDS011;18726;44.732;10.550;2024-02-23T11:58:09;18.65;;;16.58;;
32236;SDS011;18726;44.732;10.550;2024-02-23T12:01:13;10.32;;;9.23;;
32236;SDS011;18726;44.732;10.550;2024-02-23T12:04:17;13.90;;;12.48;;
32236;SDS011;18726;44.732;10.550;2024-02-23T12:07:20;12.90;;;11.60;;
32236;SDS011;18726;44.732;10.550;2024-02-23T12:10:25;9.85;;;9.05;;
32236;SDS011;18726;44.732;10.550;2024-02-23T12:13:29;10.25;;;9.15;;
32236;SDS011;18726;44.732;10.550;2024-02-23T12:16:34;7.13;;;6.53;;
32236;SDS011;18726;44.732;10.550;2024-02-23T12:19:41;6.80;;;6.20;;
32236;SDS011;18726;44.732;10.550;2024-02-23T12:22:45;8.85;;;8.05;;
32236;SDS011;18726;44.732;10.550;2024-02-23T12:25:56;11.20;;;10.07;;
32236;SDS011;18726;44.732;10.550;2024-02-23T12:29:01;7.95;;;7.18;;
32236;SDS011;18726;44.732;10.550;2024-02-23T12:32:06;11.13;;;8.43;;
32236;SDS011;18726;44.732;10.550;2024-02-23T12:35:11;8.18;;;7.38;;
32236;SDS011;18726;44.732;10.550;2024-02-23T12:38:15;9.32;;;8.40;;
32236;SDS011;18726;44.732;10.550;2024-02-23T12:41:19;11.63;;;9.63;;
32236;SDS011;18726;44.732;10.550;2024-02-23T12:44:23;10.32;;;9.02;;
32236;SDS011;18726;44.732;10.550;2024-02-23T12:47:27;10.10;;;8.77;;
32236;SDS011;18726;44.732;10.550;2024-02-23T12:50:31;9.00;;;8.13;;
32236;SDS011;18726;44.732;10.550;2024-02-23T12:53:41;18.45;;;12.95;;
32236;SDS011;18726;44.732;10.550;2024-02-23T12:56:46;10.50;;;9.50;;
32236;SDS011;18726;44.732;10.550;2024-02-23T12:59:50;9.90;;;8.90;;
32236;SDS011;18726;44.732;10.550;2024-02-23T13:02:53;9.25;;;8.38;;
32236;SDS011;18726;44.732;10.550;2024-02-23T13:05:58;10.50;;;8.82;;
32236;SDS011;18726;44.732;10.550;2024-02-23T13:09:02;11.00;;;9.48;;
32236;SDS011;18726;44.732;10.550;2024-02-23T13:12:06;8.82;;;8.02;;
32236;SDS011;18726;44.732;10.550;2024-02-23T13:15:10;8.93;;;8.02;;
32236;SDS011;18726;44.732;10.550;2024-02-23T13:18:14;7.63;;;6.90;;
32236;SDS011;18726;44.732;10.550;2024-02-23T13:21:18;7.75;;;7.05;;
32236;SDS011;18726;44.732;10.550;2024-02-23T13:24:22;8.82;;;6.93;;
32236;SDS011;18726;44.732;10.550;2024-02-23T13:27:25;7.43;;;6.72;;
32236;SDS011;18726;44.732;10.550;2024-02-23T13:30:29;7.10;;;6.43;;
32236;SDS011;18726;44.732;10.550;2024-02-23T13:33:33;7.78;;;6.78;;
32236;SDS011;18726;44.732;10.550;2024-02-23T13:36:36;8.18;;;6.90;;
32236;SDS011;18726;44.732;10.550;2024-02-23T13:39:40;8.43;;;7.53;;
32236;SDS011;18726;44.732;10.550;2024-02-23T13:42:43;9.02;;;8.15;;
32236;SDS011;18726;44.732;10.550;2024-02-23T13:45:50;8.05;;;7.45;;
32236;SDS011;18726;44.732;10.550;2024-02-23T13:49:08;9.43;;;8.52;;
32236;SDS011;18726;44.732;10.550;2024-02-23T13:52:12;8.52;;;7.72;;
32236;SDS011;18726;44.732;10.550;2024-02-23T13:55:16;9.75;;;8.88;;
32236;SDS011;18726;44.732;10.550;2024-02-23T13:58:20;10.13;;;8.75;;
32236;SDS011;18726;44.732;10.550;2024-02-23T14:01:23;9.90;;;9.00;;
32236;SDS011;18726;44.732;10.550;2024-02-23T14:04:28;10.10;;;9.20;;
32236;SDS011;18726;44.732;10.550;2024-02-23T14:07:31;9.05;;;8.25;;
32236;SDS011;18726;44.732;10.550;2024-02-23T14:10:34;9.82;;;8.82;;
32236;SDS011;18726;44.732;10.550;2024-02-23T14:13:38;9.80;;;8.90;;
32236;SDS011;18726;44.732;10.550;2024-02-23T14:16:41;22.00;;;19.70;;
32236;SDS011;18726;44.732;10.550;2024-02-23T14:19:45;12.30;;;11.02;;
32236;SDS011;18726;44.732;10.550;2024-02-23T14:22:49;11.93;;;10.73;;
32236;SDS011;18726;44.732;10.550;2024-02-23T14:25:53;14.18;;;12.77;;
32236;SDS011;18726;44.732;10.550;2024-02-23T14:28:57;20.20;;;16.98;;
32236;SDS011;18726;44.732;10.550;2024-02-23T14:32:01;74.43;;;51.90;;
32236;SDS011;18726;44.732;10.550;2024-02-23T14:35:05;110.20;;;79.28;;
32236;SDS011;18726;44.732;10.550;2024-02-23T14:38:09;78.60;;;61.78;;
32236;SDS011;18726;44.732;10.550;2024-02-23T14:41:13;24.95;;;22.15;;
32236;SDS011;18726;44.732;10.550;2024-02-23T14:44:16;15.02;;;12.82;;
32236;SDS011;18726;44.732;10.550;2024-02-23T14:47:20;13.98;;;12.68;;
32236;SDS011;18726;44.732;10.550;2024-02-23T14:50:24;15.10;;;13.75;;
32236;SDS011;18726;44.732;10.550;2024-02-23T14:53:27;14.70;;;13.18;;
32236;SDS011;18726;44.732;10.550;2024-02-23T14:56:31;14.93;;;13.35;;
32236;SDS011;18726;44.732;10.550;2024-02-23T14:59:35;19.20;;;15.90;;
32236;SDS011;18726;44.732;10.550;2024-02-23T15:02:41;16.40;;;14.77;;
32236;SDS011;18726;44.732;10.550;2024-02-23T15:05:45;19.67;;;17.67;;
32236;SDS011;18726;44.732;10.550;2024-02-23T15:08:49;21.27;;;18.98;;
32236;SDS011;18726;44.732;10.550;2024-02-23T15:11:53;20.15;;;18.08;;
32236;SDS011;18726;44.732;10.550;2024-02-23T15:14:56;22.30;;;20.10;;
32236;SDS011;18726;44.732;10.550;2024-02-23T15:18:01;23.00;;;20.65;;
32236;SDS011;18726;44.732;10.550;2024-02-23T15:21:05;26.17;;;23.50;;
32236;SDS011;18726;44.732;10.550;2024-02-23T15:24:09;20.95;;;18.85;;
32236;SDS011;18726;44.732;10.550;2024-02-23T15:27:13;21.48;;;19.50;;
32236;SDS011;18726;44.732;10.550;2024-02-23T15:30:16;23.10;;;20.40;;
32236;SDS011;18726;44.732;10.550;2024-02-23T15:33:20;24.10;;;21.75;;
32236;SDS011;18726;44.732;10.550;2024-02-23T15:36:24;21.85;;;19.75;;
32236;SDS011;18726;44.732;10.550;2024-02-23T15:39:28;21.88;;;19.77;;
32236;SDS011;18726;44.732;10.550;2024-02-23T15:46:25;24.80;;;22.23;;
32236;SDS011;18726;44.732;10.550;2024-02-23T15:49:28;22.38;;;20.25;;
32236;SDS011;18726;44.732;10.550;2024-02-23T15:52:33;22.00;;;19.95;;
32236;SDS011;18726;44.732;10.550;2024-02-23T15:55:36;21.58;;;19.38;;
32236;SDS011;18726;44.732;10.550;2024-02-23T15:58:40;21.38;;;19.17;;
32236;SDS011;18726;44.732;10.550;2024-02-23T16:01:44;20.00;;;18.00;;
32236;SDS011;18726;44.732;10.550;2024-02-23T16:04:48;20.17;;;18.15;;
32236;SDS011;18726;44.732;10.550;2024-02-23T16:07:51;21.50;;;19.25;;
32236;SDS011;18726;44.732;10.550;2024-02-23T16:10:54;25.17;;;22.63;;
32236;SDS011;18726;44.732;10.550;2024-02-23T16:13:59;24.67;;;22.02;;
32236;SDS011;18726;44.732;10.550;2024-02-23T16:17:03;20.50;;;18.40;;
32236;SDS011;18726;44.732;10.550;2024-02-23T16:20:07;23.88;;;21.30;;
32236;SDS011;18726;44.732;10.550;2024-02-23T16:23:11;23.73;;;21.27;;
32236;SDS011;18726;44.732;10.550;2024-02-23T16:26:14;23.33;;;20.50;;
32236;SDS011;18726;44.732;10.550;2024-02-23T16:29:19;25.08;;;22.50;;
32236;SDS011;18726;44.732;10.550;2024-02-23T16:32:23;24.70;;;22.08;;
32236;SDS011;18726;44.732;10.550;2024-02-23T16:35:26;26.10;;;23.33;;
32236;SDS011;18726;44.732;10.550;2024-02-23T16:38:30;25.50;;;22.90;;
32236;SDS011;18726;44.732;10.550;2024-02-23T16:41:36;25.70;;;23.08;;
32236;SDS011;18726;44.732;10.550;2024-02-23T16:44:40;25.50;;;23.02;;
32236;SDS011;18726;44.732;10.550;2024-02-23T16:47:44;24.67;;;22.20;;
32236;SDS011;18726;44.732;10.550;2024-02-23T16:50:48;22.75;;;20.25;;
32236;SDS011;18726;44.732;10.550;2024-02-23T16:53:52;27.20;;;24.40;;
32236;SDS011;18726;44.732;10.550;2024-02-23T16:56:55;23.85;;;21.40;;
32236;SDS011;18726;44.732;10.550;2024-02-23T17:00:01;27.42;;;24.63;;
32236;SDS011;18726;44.732;10.550;2024-02-23T17:03:06;36.13;;;31.67;;
32236;SDS011;18726;44.732;10.550;2024-02-23T17:06:10;39.70;;;33.80;;
32236;SDS011;18726;44.732;10.550;2024-02-23T17:09:14;33.53;;;29.70;;
32236;SDS011;18726;44.732;10.550;2024-02-23T17:12:17;28.77;;;24.77;;
32236;SDS011;18726;44.732;10.550;2024-02-23T17:15:23;31.30;;;27.92;;
32236;SDS011;18726;44.732;10.550;2024-02-23T17:18:27;30.35;;;27.05;;
32236;SDS011;18726;44.732;10.550;2024-02-23T17:21:30;29.65;;;26.20;;
32236;SDS011;18726;44.732;10.550;2024-02-23T17:24:34;25.85;;;23.10;;
32236;SDS011;18726;44.732;10.550;2024-02-23T17:27:38;24.25;;;21.75;;
32236;SDS011;18726;44.732;10.550;2024-02-23T17:30:41;24.83;;;21.20;;
32236;SDS011;18726;44.732;10.550;2024-02-23T17:33:44;24.23;;;21.73;;
32236;SDS011;18726;44.732;10.550;2024-02-23T17:36:48;48.78;;;33.70;;
32236;SDS011;18726;44.732;10.550;2024-02-23T17:39:54;40.15;;;29.38;;
32236;SDS011;18726;44.732;10.550;2024-02-23T17:42:59;25.48;;;22.02;;
32236;SDS011;18726;44.732;10.550;2024-02-23T17:46:02;28.90;;;21.55;;
32236;SDS011;18726;44.732;10.550;2024-02-23T17:49:07;20.90;;;18.88;;
32236;SDS011;18726;44.732;10.550;2024-02-23T17:52:12;22.50;;;20.30;;
32236;SDS011;18726;44.732;10.550;2024-02-23T17:55:15;19.92;;;17.90;;